createdAt,value
2019-03-21T00:01:27.229Z,441.77
2019-03-21T00:03:34.923Z,409.77
2019-03-21T00:05:42.616Z,421.93
2019-03-21T00:07:50.459Z,413.07
2019-03-21T00:10:32.980Z,414.93
2019-03-21T00:12:41.888Z,394.23
2019-03-21T00:14:57.079Z,401.80
2019-03-21T00:17:09.768Z,410.15
2019-03-21T00:19:17.552Z,412.68
2019-03-21T00:21:26.616Z,389.00
2019-03-21T00:23:34.417Z,371.87
2019-03-21T00:25:42.152Z,442.07
2019-03-21T00:27:49.817Z,440.92
2019-03-21T00:29:57.879Z,437.05
2019-03-21T00:32:05.862Z,456.10
2019-03-21T00:34:13.685Z,454.10
2019-03-21T00:36:21.651Z,437.68
2019-03-21T00:38:29.308Z,445.00
2019-03-21T00:40:44.275Z,398.57
2019-03-21T00:42:52.292Z,407.00
2019-03-21T00:44:59.890Z,400.75
2019-03-21T00:47:07.754Z,397.25
2019-03-21T00:49:15.539Z,361.12
2019-03-21T00:51:23.350Z,383.52
2019-03-21T00:53:31.050Z,435.10
2019-03-21T00:55:43.276Z,401.07
2019-03-21T00:57:50.883Z,418.17
2019-03-21T00:59:58.674Z,435.55
2019-03-21T01:02:06.570Z,439.93
2019-03-21T01:04:14.367Z,404.68
2019-03-21T01:06:22.137Z,445.45
2019-03-21T01:08:29.855Z,427.50
2019-03-21T01:10:37.721Z,416.08
2019-03-21T01:12:45.584Z,431.17
2019-03-21T01:14:54.518Z,433.25
2019-03-21T01:17:02.216Z,428.75
2019-03-21T01:19:09.990Z,420.57
2019-03-21T01:21:18.630Z,398.98
2019-03-21T01:23:26.471Z,396.87
2019-03-21T01:25:41.626Z,414.17
2019-03-21T01:27:49.240Z,375.70
2019-03-21T01:29:56.907Z,393.55
2019-03-21T01:32:04.948Z,379.70
2019-03-21T01:34:12.673Z,402.40
2019-03-21T01:36:23.283Z,391.70
2019-03-21T01:38:30.888Z,386.95
2019-03-21T01:41:01.803Z,395.57
2019-03-21T01:43:09.501Z,393.50
2019-03-21T01:45:22.096Z,374.92
2019-03-21T01:47:29.793Z,395.20
2019-03-21T01:49:37.415Z,384.18
2019-03-21T01:51:44.985Z,411.02
2019-03-21T01:53:54.722Z,422.02
2019-03-21T01:56:02.390Z,394.75
2019-03-21T01:58:10.119Z,408.02
2019-03-21T02:00:30.822Z,426.40
2019-03-21T02:02:38.470Z,415.95
2019-03-21T02:04:46.179Z,407.10
2019-03-21T02:06:54.047Z,419.75
2019-03-21T02:09:01.950Z,401.93
2019-03-21T02:11:10.812Z,408.35
2019-03-21T02:13:18.445Z,432.27
2019-03-21T02:15:26.257Z,437.32
2019-03-21T02:17:34.046Z,475.85
2019-03-21T02:19:42.976Z,459.15
2019-03-21T02:21:50.569Z,466.27
2019-03-21T02:23:58.268Z,450.27
2019-03-21T02:26:07.996Z,429.72
2019-03-21T02:28:15.714Z,371.40
2019-03-21T02:30:41.260Z,360.02
2019-03-21T02:32:52.188Z,371.35
2019-03-21T02:34:59.765Z,364.38
2019-03-21T02:37:07.467Z,372.73
2019-03-21T02:39:15.362Z,392.77
2019-03-21T02:41:25.472Z,380.48
2019-03-21T02:43:32.831Z,377.02
2019-03-21T02:45:40.561Z,390.05
2019-03-21T02:47:48.395Z,373.62
2019-03-21T02:49:56.186Z,375.05
2019-03-21T02:52:04.001Z,407.55
2019-03-21T02:54:11.705Z,379.70
2019-03-21T02:56:25.732Z,383.32
2019-03-21T02:58:33.356Z,402.07
2019-03-21T03:00:42.864Z,397.80
2019-03-21T03:02:51.673Z,380.48
2019-03-21T03:04:59.314Z,408.18
2019-03-21T03:07:06.989Z,411.60
2019-03-21T03:09:14.756Z,376.75
2019-03-21T03:11:25.005Z,359.90
2019-03-21T03:13:32.652Z,348.52
2019-03-21T03:15:41.859Z,349.88
2019-03-21T03:17:49.549Z,336.92
2019-03-21T03:19:57.258Z,295.35
2019-03-21T03:22:06.006Z,293.75
2019-03-21T03:24:13.628Z,275.85
2019-03-21T03:26:22.658Z,264.82
2019-03-21T03:28:36.797Z,291.55
2019-03-21T03:30:44.755Z,278.32
2019-03-21T03:32:53.702Z,281.82
2019-03-21T03:35:01.564Z,296.27
2019-03-21T03:37:09.284Z,330.07
2019-03-21T03:39:17.127Z,250.60
2019-03-21T03:41:24.990Z,250.78
2019-03-21T03:43:32.655Z,260.48
2019-03-21T03:45:42.658Z,299.35
2019-03-21T03:47:50.474Z,336.80
2019-03-21T03:49:58.106Z,342.30
2019-03-21T03:52:05.880Z,355.62
2019-03-21T03:54:13.651Z,346.60
2019-03-21T03:56:21.443Z,332.00
2019-03-21T03:58:33.817Z,331.32
2019-03-21T04:00:41.495Z,331.63
2019-03-21T04:02:55.549Z,336.12
2019-03-21T04:05:03.297Z,320.48
2019-03-21T04:07:11.066Z,301.92
2019-03-21T04:09:19.132Z,279.80
2019-03-21T04:11:26.801Z,301.10
2019-03-21T04:13:34.506Z,328.12
2019-03-21T04:15:52.725Z,319.10
2019-03-21T04:17:51.723Z,321.98
2019-03-21T04:19:59.418Z,351.55
2019-03-21T04:22:07.686Z,348.15
2019-03-21T04:24:15.547Z,347.60
2019-03-21T04:26:30.583Z,347.65
2019-03-21T04:28:38.272Z,334.32
2019-03-21T04:30:47.881Z,334.75
2019-03-21T04:32:55.479Z,312.90
2019-03-21T04:35:03.228Z,319.68
2019-03-21T04:37:11.120Z,280.77
2019-03-21T04:39:18.818Z,253.62
2019-03-21T04:41:26.545Z,222.88
2019-03-21T04:43:34.145Z,215.15
2019-03-21T04:45:41.842Z,222.95
2019-03-21T04:47:49.639Z,189.80
2019-03-21T04:49:58.581Z,190.32
2019-03-21T04:52:07.247Z,180.50
2019-03-21T04:54:17.936Z,161.68
2019-03-21T04:56:26.122Z,178.75
2019-03-21T04:58:34.787Z,190.40
2019-03-21T05:00:45.622Z,216.60
2019-03-21T05:02:57.393Z,229.35
2019-03-21T05:05:08.410Z,253.20
2019-03-21T05:07:16.201Z,254.90
2019-03-21T05:09:23.866Z,271.73
2019-03-21T05:11:32.828Z,287.25
2019-03-21T05:13:40.561Z,299.37
2019-03-21T05:15:51.083Z,289.80
2019-03-21T05:18:09.274Z,303.70
2019-03-21T05:20:21.514Z,297.93
2019-03-21T05:22:32.113Z,274.73
2019-03-21T05:24:39.718Z,285.43
2019-03-21T05:26:47.347Z,249.15
2019-03-21T05:28:55.589Z,229.90
2019-03-21T05:31:28.162Z,207.55
2019-03-21T05:33:35.943Z,194.02
2019-03-21T05:35:43.639Z,169.87
2019-03-21T05:37:51.396Z,189.22
2019-03-21T05:39:59.192Z,204.72
2019-03-21T05:42:10.249Z,226.75
2019-03-21T05:44:27.740Z,222.50
2019-03-21T05:46:35.711Z,224.85
2019-03-21T05:48:43.404Z,232.05
2019-03-21T05:50:50.998Z,231.60
2019-03-21T05:52:58.713Z,206.17
2019-03-21T05:55:10.786Z,237.88
2019-03-21T05:57:18.301Z,259.48
2019-03-21T05:59:26.028Z,247.88
2019-03-21T06:01:34.922Z,247.85
2019-03-21T06:03:52.645Z,247.00
2019-03-21T06:06:17.424Z,246.18
2019-03-21T06:08:33.609Z,234.75
2019-03-21T06:10:41.273Z,216.23
2019-03-21T06:12:49.003Z,211.47
2019-03-21T06:15:02.674Z,213.47
2019-03-21T06:17:13.248Z,221.80
2019-03-21T06:19:47.181Z,217.68
2019-03-21T06:22:11.297Z,226.20
2019-03-21T06:24:32.519Z,209.37
2019-03-21T06:27:01.122Z,207.15
2019-03-21T06:29:08.860Z,219.50
2019-03-21T06:31:16.774Z,217.55
2019-03-21T06:33:24.418Z,236.05
2019-03-21T06:35:32.192Z,209.30
2019-03-21T06:37:39.889Z,212.70
2019-03-21T06:39:47.505Z,204.53
2019-03-21T06:41:55.274Z,188.72
2019-03-21T06:44:03.151Z,206.20
2019-03-21T06:46:10.894Z,188.70
2019-03-21T06:48:18.517Z,190.32
2019-03-21T06:50:26.396Z,189.22
2019-03-21T06:52:34.132Z,183.72
2019-03-21T06:54:43.021Z,191.43
2019-03-21T06:56:50.676Z,168.97
2019-03-21T06:58:59.661Z,185.37
2019-03-21T07:01:07.417Z,177.12
2019-03-21T07:03:16.429Z,192.35
2019-03-21T07:05:26.685Z,164.07
2019-03-21T07:07:33.876Z,154.42
2019-03-21T07:09:41.633Z,159.95
2019-03-21T07:11:49.356Z,156.60
2019-03-21T07:13:57.218Z,152.15
2019-03-21T07:16:05.046Z,147.65
2019-03-21T07:18:12.859Z,156.07
2019-03-21T07:20:20.517Z,183.95
2019-03-21T07:22:28.175Z,179.32
2019-03-21T07:24:36.249Z,187.72
2019-03-21T07:26:43.943Z,165.43
2019-03-21T07:28:51.632Z,166.90
2019-03-21T07:30:59.428Z,163.70
2019-03-21T07:33:07.369Z,159.95
2019-03-21T07:35:16.370Z,155.15
2019-03-21T07:37:24.109Z,156.47
2019-03-21T07:39:31.937Z,170.77
2019-03-21T07:41:39.698Z,176.90
2019-03-21T07:43:47.380Z,188.75
2019-03-21T07:45:55.146Z,190.57
2019-03-21T07:48:05.076Z,181.52
2019-03-21T07:50:15.108Z,191.98
2019-03-21T07:52:22.783Z,196.22
2019-03-21T07:54:30.535Z,201.82
2019-03-21T07:56:38.346Z,226.07
2019-03-21T07:58:46.165Z,238.35
2019-03-21T08:00:53.931Z,230.65
2019-03-21T08:03:01.645Z,236.50
2019-03-21T08:05:10.938Z,242.45
2019-03-21T08:07:18.625Z,240.85
2019-03-21T08:09:26.681Z,243.45
2019-03-21T08:11:34.376Z,223.70
2019-03-21T08:13:41.973Z,250.10
2019-03-21T08:15:49.831Z,237.42
2019-03-21T08:17:57.499Z,220.93
2019-03-21T08:20:11.652Z,152.70
2019-03-21T08:22:19.384Z,178.65
2019-03-21T08:24:27.300Z,187.65
2019-03-21T08:26:35.567Z,155.48
2019-03-21T08:28:43.330Z,99.35
2019-03-21T08:31:07.705Z,72.97
2019-03-21T08:33:15.288Z,55.17
2019-03-21T08:35:23.044Z,66.50
2019-03-21T08:37:30.732Z,57.55
2019-03-21T08:39:38.470Z,57.17
2019-03-21T08:41:46.297Z,59.27
2019-03-21T08:43:53.988Z,58.08
2019-03-21T08:46:01.678Z,58.92
2019-03-21T08:48:10.543Z,37.30
2019-03-21T08:50:18.402Z,48.10
2019-03-21T08:52:26.337Z,44.48
2019-03-21T08:54:35.118Z,48.73
2019-03-21T08:56:43.010Z,43.33
2019-03-21T08:58:50.844Z,22.27
2019-03-21T09:00:58.647Z,46.55
2019-03-21T09:03:06.503Z,44.48
2019-03-21T09:05:14.257Z,54.77
2019-03-21T09:07:22.097Z,43.48
2019-03-21T09:09:30.976Z,45.43
2019-03-21T09:11:38.799Z,46.13
2019-03-21T09:13:47.665Z,28.65
2019-03-21T09:15:55.347Z,45.23
2019-03-21T09:18:03.037Z,36.33
2019-03-21T09:20:11.590Z,42.90
2019-03-21T09:22:19.183Z,50.25
2019-03-21T09:24:26.871Z,62.58
2019-03-21T09:26:34.659Z,32.80
2019-03-21T09:28:43.292Z,30.10
2019-03-21T09:30:50.991Z,41.10
2019-03-21T09:32:58.777Z,44.58
2019-03-21T09:35:08.640Z,49.25
2019-03-21T09:37:16.297Z,31.57
2019-03-21T09:39:24.071Z,56.40
2019-03-21T09:41:32.058Z,37.90
2019-03-21T09:43:39.741Z,60.10
2019-03-21T09:45:47.469Z,51.65
2019-03-21T09:47:55.214Z,48.38
2019-03-21T09:50:03.136Z,43.02
2019-03-21T09:52:10.822Z,50.25
2019-03-21T09:54:18.665Z,46.85
2019-03-21T09:56:26.536Z,37.78
2019-03-21T09:58:34.140Z,52.08
2019-03-21T10:00:41.822Z,48.92
2019-03-21T10:02:50.313Z,40.20
2019-03-21T10:04:57.926Z,32.73
2019-03-21T10:07:05.800Z,52.25
2019-03-21T10:09:13.831Z,49.90
2019-03-21T10:11:22.688Z,56.30
2019-03-21T10:13:30.462Z,53.28
2019-03-21T10:15:38.191Z,55.80
2019-03-21T10:17:46.054Z,51.00
2019-03-21T10:19:53.703Z,55.92
2019-03-21T10:22:01.456Z,60.78
2019-03-21T10:24:09.367Z,55.80
2019-03-21T10:26:17.298Z,31.60
2019-03-21T10:28:26.202Z,55.85
2019-03-21T10:30:42.539Z,56.85
2019-03-21T10:32:50.228Z,53.80
2019-03-21T10:34:59.340Z,46.37
2019-03-21T10:37:07.197Z,53.23
2019-03-21T10:39:14.948Z,70.52
2019-03-21T10:41:22.605Z,89.80
2019-03-21T10:43:30.327Z,53.15
2019-03-21T10:45:38.791Z,51.25
2019-03-21T10:47:46.374Z,58.35
2019-03-21T10:49:54.732Z,62.70
2019-03-21T10:52:02.387Z,54.05
2019-03-21T10:54:10.064Z,58.13
2019-03-21T10:56:17.851Z,28.50
2019-03-21T10:58:25.680Z,32.05
2019-03-21T11:00:33.395Z,46.58
2019-03-21T11:02:42.247Z,40.52
2019-03-21T11:04:49.933Z,58.73
2019-03-21T11:07:01.332Z,30.23
2019-03-21T11:09:09.498Z,35.52
2019-03-21T11:11:17.357Z,45.15
2019-03-21T11:13:25.170Z,34.90
2019-03-21T11:15:33.158Z,48.23
2019-03-21T11:17:40.886Z,32.38
2019-03-21T11:19:48.649Z,53.10
2019-03-21T11:22:05.821Z,34.30
2019-03-21T11:24:05.793Z,50.00
2019-03-21T11:26:13.610Z,54.00
2019-03-21T11:28:21.441Z,25.43
2019-03-21T11:30:38.570Z,48.95
2019-03-21T11:32:46.260Z,53.48
2019-03-21T11:34:56.271Z,47.20
2019-03-21T11:37:05.043Z,48.33
2019-03-21T11:39:13.987Z,47.78
2019-03-21T11:41:22.144Z,50.73
2019-03-21T11:43:29.739Z,49.98
2019-03-21T11:45:37.691Z,32.13
2019-03-21T11:47:45.451Z,41.75
2019-03-21T11:49:54.340Z,52.75
2019-03-21T11:52:02.095Z,52.88
2019-03-21T11:54:09.787Z,59.55
2019-03-21T11:56:17.675Z,52.62
2019-03-21T11:58:25.236Z,54.25
2019-03-21T12:00:42.827Z,53.65
2019-03-21T12:02:42.216Z,43.25
2019-03-21T12:04:50.043Z,49.10
2019-03-21T12:06:58.030Z,44.13
2019-03-21T12:09:07.755Z,49.00
2019-03-21T12:11:15.498Z,50.17
2019-03-21T12:13:24.410Z,47.45
2019-03-21T12:15:33.426Z,53.48
2019-03-21T12:17:41.021Z,37.03
2019-03-21T12:19:48.846Z,43.20
2019-03-21T12:21:56.540Z,52.55
2019-03-21T12:24:04.359Z,33.80
2019-03-21T12:26:11.983Z,55.05
2019-03-21T12:28:20.868Z,25.80
2019-03-21T12:30:39.522Z,48.15
2019-03-21T12:32:47.599Z,28.70
2019-03-21T12:34:55.253Z,45.95
2019-03-21T12:37:03.111Z,26.90
2019-03-21T12:39:11.075Z,44.30
2019-03-21T12:41:20.149Z,37.13
2019-03-21T12:43:27.953Z,52.73
2019-03-21T12:45:36.173Z,48.23
2019-03-21T12:47:43.777Z,46.10
2019-03-21T12:49:51.473Z,46.28
2019-03-21T12:51:59.382Z,50.75
2019-03-21T12:54:08.167Z,23.25
2019-03-21T12:56:15.861Z,41.20
2019-03-21T12:58:23.594Z,38.78
2019-03-21T13:00:37.526Z,45.15
2019-03-21T13:02:45.205Z,45.58
2019-03-21T13:04:52.918Z,29.48
2019-03-21T13:07:00.552Z,28.17
2019-03-21T13:09:09.183Z,41.88
2019-03-21T13:11:16.897Z,31.97
2019-03-21T13:13:24.641Z,41.53
2019-03-21T13:15:32.407Z,43.05
2019-03-21T13:17:40.041Z,39.40
2019-03-21T13:19:47.789Z,49.27
2019-03-21T13:21:55.527Z,47.62
2019-03-21T13:24:03.284Z,49.23
2019-03-21T13:26:11.062Z,54.42
2019-03-21T13:28:18.748Z,49.08
2019-03-21T13:30:26.736Z,53.98
2019-03-21T13:32:34.562Z,60.30
2019-03-21T13:34:42.469Z,40.17
2019-03-21T13:36:50.278Z,50.33
2019-03-21T13:38:57.981Z,45.90
2019-03-21T13:41:05.735Z,55.35
2019-03-21T13:43:13.454Z,51.05
2019-03-21T13:45:21.391Z,51.98
2019-03-21T13:47:29.125Z,55.15
2019-03-21T13:49:36.837Z,26.73
2019-03-21T13:51:44.536Z,26.95
2019-03-21T13:53:52.217Z,49.30
2019-03-21T13:55:59.996Z,46.68
2019-03-21T13:58:07.754Z,27.48
2019-03-21T14:00:21.374Z,45.70
2019-03-21T14:02:29.109Z,44.90
2019-03-21T14:04:36.796Z,43.28
2019-03-21T14:06:44.427Z,43.58
2019-03-21T14:08:52.137Z,52.83
2019-03-21T14:10:59.889Z,42.45
2019-03-21T14:13:21.455Z,52.15
2019-03-21T14:15:29.383Z,50.05
2019-03-21T14:17:36.958Z,50.15
2019-03-21T14:19:44.541Z,36.03
2019-03-21T14:21:52.324Z,40.52
2019-03-21T14:24:00.103Z,30.90
2019-03-21T14:26:07.860Z,33.15
2019-03-21T14:28:15.571Z,23.67
2019-03-21T14:30:23.324Z,26.68
2019-03-21T14:32:31.278Z,46.35
2019-03-21T14:34:39.071Z,36.33
2019-03-21T14:36:47.755Z,40.65
2019-03-21T14:38:55.440Z,43.58
2019-03-21T14:41:03.224Z,31.00
2019-03-21T14:43:10.881Z,39.60
2019-03-21T14:45:19.048Z,39.85
2019-03-21T14:47:35.792Z,46.20
2019-03-21T14:49:36.404Z,42.70
2019-03-21T14:51:44.153Z,43.68
2019-03-21T14:53:52.051Z,34.35
2019-03-21T14:55:59.632Z,49.63
2019-03-21T14:58:07.325Z,45.00
2019-03-21T15:00:23.175Z,46.30
2019-03-21T15:02:30.826Z,50.08
2019-03-21T15:04:38.406Z,53.17
2019-03-21T15:06:46.025Z,52.55
2019-03-21T15:08:53.871Z,53.42
2019-03-21T15:11:01.621Z,50.28
2019-03-21T15:13:09.447Z,34.27
2019-03-21T15:15:17.544Z,46.77
2019-03-21T15:17:25.402Z,46.88
2019-03-21T15:19:33.114Z,57.67
2019-03-21T15:21:40.860Z,45.88
2019-03-21T15:23:58.809Z,48.80
2019-03-21T15:25:58.041Z,55.52
2019-03-21T15:28:05.940Z,53.15
2019-03-21T15:30:20.120Z,57.65
2019-03-21T15:32:27.942Z,48.23
2019-03-21T15:34:35.777Z,49.40
2019-03-21T15:36:43.424Z,45.75
2019-03-21T15:38:51.530Z,49.83
2019-03-21T15:40:59.124Z,51.15
2019-03-21T15:43:06.885Z,47.60
2019-03-21T15:45:23.369Z,51.85
2019-03-21T15:47:27.675Z,53.60
2019-03-21T15:49:38.525Z,49.65
2019-03-21T15:51:46.165Z,47.30
2019-03-21T15:53:56.649Z,48.30
2019-03-21T15:56:03.229Z,47.03
2019-03-21T15:58:10.946Z,44.60
2019-03-21T16:00:33.299Z,46.50
2019-03-21T16:02:42.048Z,50.48
2019-03-21T16:04:49.755Z,53.23
2019-03-21T16:06:58.622Z,49.40
2019-03-21T16:09:07.950Z,44.63
2019-03-21T16:11:15.651Z,47.88
2019-03-21T16:13:23.334Z,48.68
2019-03-21T16:15:31.234Z,50.28
2019-03-21T16:17:38.904Z,55.38
2019-03-21T16:19:46.739Z,52.93
2019-03-21T16:21:54.587Z,51.02
2019-03-21T16:24:05.360Z,53.38
2019-03-21T16:26:11.577Z,50.33
2019-03-21T16:28:20.280Z,54.58
2019-03-21T16:30:28.245Z,55.45
2019-03-21T16:32:35.930Z,55.55
2019-03-21T16:34:43.618Z,58.02
2019-03-21T16:36:52.300Z,53.28
2019-03-21T16:39:00.052Z,56.35
2019-03-21T16:41:07.725Z,63.25
2019-03-21T16:43:15.629Z,56.85
2019-03-21T16:45:23.583Z,65.52
2019-03-21T16:47:31.266Z,59.88
2019-03-21T16:49:39.093Z,61.18
2019-03-21T16:51:46.780Z,68.55
2019-03-21T16:53:54.635Z,69.62
2019-03-21T16:56:02.521Z,69.07
2019-03-21T16:58:11.369Z,74.75
2019-03-21T17:00:20.666Z,68.12
2019-03-21T17:02:28.472Z,86.80
2019-03-21T17:04:36.166Z,77.72
2019-03-21T17:06:45.210Z,87.42
2019-03-21T17:08:53.037Z,98.35
2019-03-21T17:11:00.769Z,101.60
2019-03-21T17:13:08.595Z,101.10
2019-03-21T17:15:18.105Z,99.75
2019-03-21T17:17:25.708Z,106.20
2019-03-21T17:19:33.467Z,87.50
2019-03-21T17:21:41.287Z,101.12
2019-03-21T17:23:48.958Z,99.87
2019-03-21T17:25:56.680Z,107.00
2019-03-21T17:28:04.541Z,102.32
2019-03-21T17:30:14.920Z,113.77
2019-03-21T17:32:22.678Z,113.60
2019-03-21T17:34:30.646Z,114.50
2019-03-21T17:36:38.339Z,111.47
2019-03-21T17:38:46.043Z,120.10
2019-03-21T17:40:53.940Z,121.05
2019-03-21T17:43:01.633Z,125.00
2019-03-21T17:45:16.707Z,134.82
2019-03-21T17:47:24.424Z,136.03
2019-03-21T17:49:32.178Z,134.37
2019-03-21T17:51:39.874Z,131.27
2019-03-21T17:53:47.596Z,140.70
2019-03-21T17:55:55.180Z,139.37
2019-03-21T17:58:02.777Z,146.35
2019-03-21T18:00:15.333Z,154.18
2019-03-21T18:02:24.043Z,152.22
2019-03-21T18:04:31.807Z,150.30
2019-03-21T18:06:40.810Z,161.52
2019-03-21T18:08:48.500Z,181.85
2019-03-21T18:10:57.321Z,194.90
2019-03-21T18:13:05.719Z,181.67
2019-03-21T18:15:13.515Z,156.37
2019-03-21T18:17:21.235Z,145.82
2019-03-21T18:19:30.152Z,137.07
2019-03-21T18:21:37.852Z,145.95
2019-03-21T18:23:45.614Z,173.32
2019-03-21T18:25:53.329Z,172.78
2019-03-21T18:28:01.099Z,186.07
2019-03-21T18:30:09.440Z,214.53
2019-03-21T18:32:17.075Z,211.95
2019-03-21T18:34:24.676Z,200.38
2019-03-21T18:36:32.348Z,241.85
2019-03-21T18:38:39.976Z,207.12
2019-03-21T18:40:47.673Z,227.28
2019-03-21T18:42:56.742Z,226.47
2019-03-21T18:45:05.408Z,226.18
2019-03-21T18:47:13.011Z,239.05
2019-03-21T18:49:20.707Z,242.00
2019-03-21T18:51:28.448Z,306.17
2019-03-21T18:53:36.096Z,419.00
2019-03-21T18:55:43.822Z,327.43
2019-03-21T18:57:51.443Z,423.23
2019-03-21T18:59:59.144Z,313.95
2019-03-21T19:02:06.892Z,747.73
2019-03-21T19:04:14.615Z,586.28
2019-03-21T19:06:22.219Z,499.55
2019-03-21T19:08:29.820Z,352.68
2019-03-21T19:10:37.719Z,272.37
2019-03-21T19:12:45.463Z,384.10
2019-03-21T19:14:53.159Z,246.50
2019-03-21T19:17:00.886Z,218.80
2019-03-21T19:19:08.591Z,237.50
2019-03-21T19:21:16.498Z,226.98
2019-03-21T19:23:24.218Z,203.52
2019-03-21T19:25:31.989Z,217.28
2019-03-21T19:27:39.674Z,228.12
2019-03-21T19:29:47.411Z,225.55
2019-03-21T19:31:55.178Z,470.02
2019-03-21T19:34:02.883Z,457.15
2019-03-21T19:36:10.803Z,514.02
2019-03-21T19:38:18.504Z,502.78
2019-03-21T19:40:26.292Z,362.77
2019-03-21T19:42:34.016Z,370.48
2019-03-21T19:44:42.537Z,368.23
2019-03-21T19:46:50.129Z,344.37
2019-03-21T19:48:57.927Z,251.45
2019-03-21T19:51:05.712Z,362.90
2019-03-21T19:53:14.370Z,290.90
2019-03-21T19:55:30.858Z,272.48
2019-03-21T19:57:31.631Z,253.40
2019-03-21T19:59:40.736Z,238.68
2019-03-21T20:01:48.437Z,246.50
2019-03-21T20:03:56.432Z,256.10
2019-03-21T20:06:04.269Z,235.82
2019-03-21T20:08:12.083Z,228.50
2019-03-21T20:10:21.894Z,233.05
2019-03-21T20:12:29.739Z,237.50
2019-03-21T20:14:37.717Z,219.22
2019-03-21T20:16:45.557Z,232.30
2019-03-21T20:18:53.366Z,226.02
2019-03-21T20:21:01.069Z,259.35
2019-03-21T20:23:11.489Z,238.25
2019-03-21T20:25:19.439Z,244.05
2019-03-21T20:27:27.044Z,227.15
2019-03-21T20:29:34.736Z,221.75
2019-03-21T20:31:42.409Z,266.08
2019-03-21T20:33:50.235Z,263.92
2019-03-21T20:35:58.066Z,232.43
2019-03-21T20:38:08.310Z,240.10
2019-03-21T20:40:19.568Z,241.20
2019-03-21T20:42:27.230Z,204.68
2019-03-21T20:44:35.006Z,204.65
2019-03-21T20:46:43.606Z,217.65
2019-03-21T20:48:49.641Z,232.20
2019-03-21T20:50:58.940Z,281.43
2019-03-21T20:53:07.631Z,252.90
2019-03-21T20:55:15.570Z,235.08
2019-03-21T20:57:23.402Z,256.87
2019-03-21T20:59:31.141Z,296.90
2019-03-21T21:01:38.796Z,298.00
2019-03-21T21:03:46.468Z,280.87
2019-03-21T21:05:54.215Z,331.90
2019-03-21T21:08:01.991Z,477.88
2019-03-21T21:10:11.991Z,692.35
2019-03-21T21:12:19.799Z,894.52
2019-03-21T21:14:28.666Z,614.87
2019-03-21T21:16:36.434Z,577.23
2019-03-21T21:18:44.370Z,482.12
2019-03-21T21:20:52.096Z,499.98
2019-03-21T21:22:59.918Z,517.10
2019-03-21T21:25:09.470Z,413.40
2019-03-21T21:27:17.147Z,453.23
2019-03-21T21:29:24.850Z,455.50
2019-03-21T21:31:32.546Z,385.80
2019-03-21T21:33:40.151Z,396.10
2019-03-21T21:35:47.923Z,387.02
2019-03-21T21:37:55.691Z,367.65
2019-03-21T21:40:04.853Z,382.57
2019-03-21T21:42:12.583Z,374.80
2019-03-21T21:44:20.215Z,454.23
2019-03-21T21:46:27.911Z,383.20
2019-03-21T21:48:36.472Z,310.60
2019-03-21T21:50:44.178Z,325.68
2019-03-21T21:52:51.773Z,333.87
2019-03-21T21:54:59.481Z,353.55
2019-03-21T21:57:07.215Z,329.35
2019-03-21T21:59:15.035Z,346.57
2019-03-21T22:01:23.924Z,355.95
2019-03-21T22:03:32.692Z,367.82
2019-03-21T22:05:40.393Z,384.60
2019-03-21T22:07:48.012Z,605.40
2019-03-21T22:09:56.922Z,369.65
2019-03-21T22:12:04.787Z,400.42
2019-03-21T22:14:13.449Z,409.10
2019-03-21T22:16:21.253Z,415.85
2019-03-21T22:18:28.954Z,457.73
2019-03-21T22:20:36.713Z,652.55
2019-03-21T22:22:44.898Z,609.45
2019-03-21T22:24:52.494Z,610.52
2019-03-21T22:27:00.211Z,667.15
2019-03-21T22:29:07.993Z,631.00
2019-03-21T22:31:15.927Z,647.00
2019-03-21T22:33:23.675Z,612.95
2019-03-21T22:35:31.307Z,632.67
2019-03-21T22:37:39.007Z,734.27
2019-03-21T22:39:46.748Z,735.37
2019-03-21T22:41:54.369Z,798.00
2019-03-21T22:44:01.971Z,1038.22
2019-03-21T22:46:09.837Z,844.70
2019-03-21T22:48:17.475Z,951.50
2019-03-21T22:50:27.261Z,769.58
2019-03-21T22:52:34.968Z,709.90
2019-03-21T22:54:42.625Z,670.48
2019-03-21T22:56:50.326Z,789.97
2019-03-21T22:58:58.017Z,660.63
2019-03-21T23:01:06.247Z,648.17
2019-03-21T23:03:14.168Z,670.33
2019-03-21T23:05:22.054Z,830.18
2019-03-21T23:07:29.751Z,737.77
2019-03-21T23:09:37.676Z,741.38
2019-03-21T23:11:45.447Z,699.15
2019-03-21T23:13:53.157Z,646.63
2019-03-21T23:16:00.996Z,589.58
2019-03-21T23:18:08.840Z,561.08
2019-03-21T23:20:17.212Z,584.60
2019-03-21T23:22:25.197Z,609.35
2019-03-21T23:24:33.074Z,542.05
2019-03-21T23:26:52.233Z,528.42
2019-03-21T23:28:50.317Z,530.58
2019-03-21T23:30:58.023Z,543.35
2019-03-21T23:33:06.899Z,508.65
2019-03-21T23:35:15.413Z,541.20
2019-03-21T23:37:23.647Z,529.27
2019-03-21T23:39:31.448Z,531.30
2019-03-21T23:41:39.228Z,515.12
2019-03-21T23:43:46.832Z,517.33
2019-03-21T23:45:54.660Z,510.23
2019-03-21T23:48:02.521Z,510.15
2019-03-21T23:50:12.538Z,488.63
2019-03-21T23:52:20.430Z,493.48
2019-03-21T23:54:28.047Z,473.88
2019-03-21T23:56:35.905Z,476.67
2019-03-21T23:58:43.714Z,460.20
